Terminal Aerodrome Forecast
Issued by NWS

Home | Current Version | Previous Version | Text Only | Print | Product List | Glossary On
Versions: 1 2 3 4 5 6 7 8 9 10 11 12 13 14 15 16 17 18 19 20 21 22
000
FTUS44 KLZK 211000 AAA
TAFHOT
TAF AMD
KHOT 211039Z 2111/2206 00000KT P6SM SCT250
      TEMPO 2111/2114 2SM BR
     FM211600 33006KT P6SM SCT050 SCT250
     FM220000 32003KT P6SM SKC=

USA.gov is the U.S. government's official web portal to all federal, state and local government web resources and services.